sensor_id;sensor_type;location;lat;lon;timestamp;pressure;altitude;pressure_sealevel;temperature;humidity
58739;BME280;44512;53.046;18.604;2023-02-28T00:04:26;103217.90;;;1.19;55.93
58739;BME280;44512;53.046;18.604;2023-02-28T00:14:54;103220.10;;;1.11;55.81
58739;BME280;44512;53.046;18.604;2023-02-28T00:25:25;103228.48;;;1.03;55.89
58739;BME280;44512;53.046;18.604;2023-02-28T00:35:51;103228.97;;;0.94;55.59
58739;BME280;44512;53.046;18.604;2023-02-28T00:46:19;103241.81;;;0.86;55.49
58739;BME280;44512;53.046;18.604;2023-02-28T00:56:48;103232.75;;;0.71;55.68
58739;BME280;44512;53.046;18.604;2023-02-28T01:07:16;103230.53;;;0.62;55.58
58739;BME280;44512;53.046;18.604;2023-02-28T01:17:45;103241.66;;;0.53;55.67
58739;BME280;44512;53.046;18.604;2023-02-28T01:28:13;103242.88;;;0.45;55.47
58739;BME280;44512;53.046;18.604;2023-02-28T01:38:42;103226.32;;;0.39;55.24
58739;BME280;44512;53.046;18.604;2023-02-28T01:49:16;103237.41;;;0.30;55.11
58739;BME280;44512;53.046;18.604;2023-02-28T01:59:43;103230.73;;;0.21;54.93
58739;BME280;44512;53.046;18.604;2023-02-28T02:10:16;103219.69;;;0.10;54.92
58739;BME280;44512;53.046;18.604;2023-02-28T02:41:46;103229.08;;;-0.21;54.69
58739;BME280;44512;53.046;18.604;2023-02-28T02:52:08;103234.78;;;-0.29;54.79
58739;BME280;44512;53.046;18.604;2023-02-28T03:02:29;103236.89;;;-0.37;54.94
58739;BME280;44512;53.046;18.604;2023-02-28T03:34:03;103240.70;;;-0.63;54.90
58739;BME280;44512;53.046;18.604;2023-02-28T03:44:29;103244.57;;;-0.70;54.62
58739;BME280;44512;53.046;18.604;2023-02-28T03:54:55;103243.16;;;-0.79;54.66
58739;BME280;44512;53.046;18.604;2023-02-28T04:05:21;103252.26;;;-0.84;54.77
58739;BME280;44512;53.046;18.604;2023-02-28T04:15:49;103257.05;;;-0.92;54.44
58739;BME280;44512;53.046;18.604;2023-02-28T04:26:17;103272.45;;;-1.00;54.37
58739;BME280;44512;53.046;18.604;2023-02-28T04:36:46;103269.23;;;-1.09;54.40
58739;BME280;44512;53.046;18.604;2023-02-28T04:47:14;103273.20;;;-1.19;54.44
58739;BME280;44512;53.046;18.604;2023-02-28T04:57:43;103273.51;;;-1.26;54.55
58739;BME280;44512;53.046;18.604;2023-02-28T05:08:11;103278.13;;;-1.32;54.76
58739;BME280;44512;53.046;18.604;2023-02-28T05:18:40;103272.20;;;-1.38;54.73
58739;BME280;44512;53.046;18.604;2023-02-28T05:29:09;103277.77;;;-1.44;54.70
58739;BME280;44512;53.046;18.604;2023-02-28T05:39:37;103279.73;;;-1.49;54.67
58739;BME280;44512;53.046;18.604;2023-02-28T05:50:06;103292.34;;;-1.54;54.77
58739;BME280;44512;53.046;18.604;2023-02-28T06:00:33;103296.13;;;-1.62;54.95
58739;BME280;44512;53.046;18.604;2023-02-28T06:11:05;103305.14;;;-1.66;55.18
58739;BME280;44512;53.046;18.604;2023-02-28T06:21:31;103311.37;;;-1.67;55.55
58739;BME280;44512;53.046;18.604;2023-02-28T06:31:59;103299.83;;;-1.66;56.00
58739;BME280;44512;53.046;18.604;2023-02-28T06:42:27;103305.79;;;-1.59;56.66
58739;BME280;44512;53.046;18.604;2023-02-28T06:52:56;103316.00;;;-1.48;57.52
58739;BME280;44512;53.046;18.604;2023-02-28T07:03:24;103324.30;;;-1.34;58.56
58739;BME280;44512;53.046;18.604;2023-02-28T07:13:54;103330.79;;;-1.19;59.54
58739;BME280;44512;53.046;18.604;2023-02-28T07:24:21;103340.02;;;-1.06;60.71
58739;BME280;44512;53.046;18.604;2023-02-28T07:34:50;103336.63;;;-0.88;61.50
58739;BME280;44512;53.046;18.604;2023-02-28T07:45:19;103338.60;;;-0.71;62.22
58739;BME280;44512;53.046;18.604;2023-02-28T07:55:48;103343.27;;;-0.56;62.64
58739;BME280;44512;53.046;18.604;2023-02-28T08:06:21;103330.12;;;-0.38;62.72
58739;BME280;44512;53.046;18.604;2023-02-28T08:16:44;103335.57;;;-0.21;63.15
58739;BME280;44512;53.046;18.604;2023-02-28T08:27:13;103337.43;;;-0.03;62.85
58739;BME280;44512;53.046;18.604;2023-02-28T08:37:41;103331.42;;;0.13;62.83
58739;BME280;44512;53.046;18.604;2023-02-28T08:48:10;103318.19;;;0.30;62.61
58739;BME280;44512;53.046;18.604;2023-02-28T08:58:39;103332.60;;;0.45;62.21
58739;BME280;44512;53.046;18.604;2023-02-28T09:09:06;103340.84;;;0.59;61.97
58739;BME280;44512;53.046;18.604;2023-02-28T09:19:35;103333.05;;;0.73;61.60
58739;BME280;44512;53.046;18.604;2023-02-28T09:35:08;103337.28;;;0.96;59.68
58739;BME280;44512;53.046;18.604;2023-02-28T09:45:39;103334.73;;;1.12;58.49
58739;BME280;44512;53.046;18.604;2023-02-28T09:56:11;103336.63;;;1.27;58.39
58739;BME280;44512;53.046;18.604;2023-02-28T10:06:59;103312.39;;;1.32;58.28
58739;BME280;44512;53.046;18.604;2023-02-28T10:17:17;103313.83;;;1.56;57.81
58739;BME280;44512;53.046;18.604;2023-02-28T10:27:32;103305.09;;;1.70;56.99
58739;BME280;44512;53.046;18.604;2023-02-28T10:38:00;103307.05;;;1.84;56.32
58739;BME280;44512;53.046;18.604;2023-02-28T11:19:59;103268.90;;;2.31;53.69
58739;BME280;44512;53.046;18.604;2023-02-28T11:30:36;103261.94;;;2.44;52.78
58739;BME280;44512;53.046;18.604;2023-02-28T11:41:02;103249.57;;;2.57;53.06
58739;BME280;44512;53.046;18.604;2023-02-28T11:51:26;103248.11;;;2.68;53.90
58739;BME280;44512;53.046;18.604;2023-02-28T12:33:14;103233.29;;;3.08;53.23
58739;BME280;44512;53.046;18.604;2023-02-28T12:43:44;103231.53;;;3.23;53.16
58739;BME280;44512;53.046;18.604;2023-02-28T13:36:22;103164.82;;;3.91;51.63
58739;BME280;44512;53.046;18.604;2023-02-28T13:46:32;103158.30;;;4.09;50.31
58739;BME280;44512;53.046;18.604;2023-02-28T14:07:32;103123.96;;;4.56;47.95
58739;BME280;44512;53.046;18.604;2023-02-28T14:17:56;103117.80;;;4.81;44.86
58739;BME280;44512;53.046;18.604;2023-02-28T14:49:26;103103.76;;;5.41;41.90
58739;BME280;44512;53.046;18.604;2023-02-28T15:10:20;103107.68;;;5.73;41.97
58739;BME280;44512;53.046;18.604;2023-02-28T15:20:46;103099.72;;;5.85;42.12
58739;BME280;44512;53.046;18.604;2023-02-28T15:31:23;103101.54;;;5.97;42.29
58739;BME280;44512;53.046;18.604;2023-02-28T15:41:43;103104.28;;;6.08;42.54
58739;BME280;44512;53.046;18.604;2023-02-28T15:52:38;103092.98;;;6.16;42.90
58739;BME280;44512;53.046;18.604;2023-02-28T16:02:40;103096.62;;;6.15;43.14
58739;BME280;44512;53.046;18.604;2023-02-28T16:13:11;103102.05;;;6.02;43.22
58739;BME280;44512;53.046;18.604;2023-02-28T16:23:37;103112.18;;;5.86;43.54
58739;BME280;44512;53.046;18.604;2023-02-28T16:34:05;103112.88;;;5.64;43.98
58739;BME280;44512;53.046;18.604;2023-02-28T16:44:35;103129.23;;;5.35;44.86
58739;BME280;44512;53.046;18.604;2023-02-28T16:55:02;103131.77;;;5.11;45.71
58739;BME280;44512;53.046;18.604;2023-02-28T17:05:36;103128.11;;;4.87;46.19
58739;BME280;44512;53.046;18.604;2023-02-28T17:15:59;103121.91;;;4.59;46.68
58739;BME280;44512;53.046;18.604;2023-02-28T17:26:27;103119.47;;;4.29;47.36
58739;BME280;44512;53.046;18.604;2023-02-28T17:36:55;103115.60;;;4.06;48.20
58739;BME280;44512;53.046;18.604;2023-02-28T17:47:24;103098.24;;;3.85;48.96
58739;BME280;44512;53.046;18.604;2023-02-28T17:57:52;103085.81;;;3.70;49.49
58739;BME280;44512;53.046;18.604;2023-02-28T18:08:21;103072.36;;;3.57;50.34
58739;BME280;44512;53.046;18.604;2023-02-28T18:18:49;103065.48;;;3.53;50.88
58739;BME280;44512;53.046;18.604;2023-02-28T18:29:24;103065.55;;;3.51;51.15
58739;BME280;44512;53.046;18.604;2023-02-28T18:39:46;103069.20;;;3.50;51.13
58739;BME280;44512;53.046;18.604;2023-02-28T18:50:16;103070.73;;;3.40;51.23
58739;BME280;44512;53.046;18.604;2023-02-28T19:00:43;103069.23;;;3.22;51.60
58739;BME280;44512;53.046;18.604;2023-02-28T19:11:15;103070.83;;;3.10;51.72
58739;BME280;44512;53.046;18.604;2023-02-28T19:21:41;103086.68;;;2.99;51.92
58739;BME280;44512;53.046;18.604;2023-02-28T19:32:09;103086.46;;;2.87;52.21
58739;BME280;44512;53.046;18.604;2023-02-28T19:42:38;103094.01;;;2.81;52.23
58739;BME280;44512;53.046;18.604;2023-02-28T19:53:06;103114.23;;;2.71;52.30
58739;BME280;44512;53.046;18.604;2023-02-28T20:03:35;103105.56;;;2.51;52.74
58739;BME280;44512;53.046;18.604;2023-02-28T20:14:03;103102.49;;;2.43;53.03
58739;BME280;44512;53.046;18.604;2023-02-28T20:24:32;103105.43;;;2.39;53.10
58739;BME280;44512;53.046;18.604;2023-02-28T20:35:01;103095.97;;;2.33;53.26
58739;BME280;44512;53.046;18.604;2023-02-28T20:45:29;103089.23;;;2.26;53.38
58739;BME280;44512;53.046;18.604;2023-02-28T20:56:00;103101.83;;;2.24;53.27
58739;BME280;44512;53.046;18.604;2023-02-28T21:06:32;103096.85;;;2.18;53.16
58739;BME280;44512;53.046;18.604;2023-02-28T21:16:55;103098.91;;;2.13;53.17
58739;BME280;44512;53.046;18.604;2023-02-28T21:27:23;103097.72;;;2.02;53.38
58739;BME280;44512;53.046;18.604;2023-02-28T21:37:52;103092.09;;;1.91;53.70
58739;BME280;44512;53.046;18.604;2023-02-28T21:48:20;103091.52;;;1.86;53.86
58739;BME280;44512;53.046;18.604;2023-02-28T21:58:50;103087.65;;;1.76;54.22
58739;BME280;44512;53.046;18.604;2023-02-28T22:09:18;103078.23;;;1.69;54.51
58739;BME280;44512;53.046;18.604;2023-02-28T22:19:46;103092.69;;;1.65;54.85
58739;BME280;44512;53.046;18.604;2023-02-28T22:30:15;103078.73;;;1.60;55.19
58739;BME280;44512;53.046;18.604;2023-02-28T22:40:43;103070.83;;;1.58;55.24
58739;BME280;44512;53.046;18.604;2023-02-28T22:51:14;103088.49;;;1.61;55.12
58739;BME280;44512;53.046;18.604;2023-02-28T23:01:40;103081.40;;;1.60;55.12
58739;BME280;44512;53.046;18.604;2023-02-28T23:12:08;103078.21;;;1.53;55.12
58739;BME280;44512;53.046;18.604;2023-02-28T23:22:37;103056.85;;;1.37;55.47
58739;BME280;44512;53.046;18.604;2023-02-28T23:33:05;103085.59;;;1.32;55.82
58739;BME280;44512;53.046;18.604;2023-02-28T23:43:34;103085.59;;;1.32;55.97
58739;BME280;44512;53.046;18.604;2023-02-28T23:54:03;103095.77;;;1.41;55.77
